createdAt,value
2022-08-16T00:02:58.689Z,22.31
2022-08-16T00:06:01.962Z,22.32
2022-08-16T00:09:05.621Z,22.37
2022-08-16T00:12:08.507Z,22.46
2022-08-16T00:15:17.029Z,22.30
2022-08-16T00:18:22.102Z,22.22
2022-08-16T00:21:32.805Z,22.39
2022-08-16T00:24:35.473Z,22.41
2022-08-16T00:27:38.068Z,22.37
2022-08-16T00:30:42.073Z,22.35
2022-08-16T00:33:50.007Z,22.29
2022-08-16T00:36:55.741Z,22.28
2022-08-16T00:39:59.062Z,22.36
2022-08-16T00:43:02.082Z,22.25
2022-08-16T00:46:32.891Z,22.41
2022-08-16T00:49:39.325Z,22.33
2022-08-16T00:52:50.980Z,22.35
2022-08-16T00:55:57.642Z,22.23
2022-08-16T00:59:01.593Z,22.12
2022-08-16T01:02:30.795Z,22.08
2022-08-16T01:05:33.360Z,22.23
2022-08-16T01:08:37.368Z,22.11
2022-08-16T01:11:53.815Z,22.18
2022-08-16T01:15:00.941Z,22.12
2022-08-16T01:18:08.347Z,22.21
2022-08-16T01:21:39.950Z,22.23
2022-08-16T01:24:53.824Z,22.08
2022-08-16T01:28:01.465Z,22.14
2022-08-16T01:31:05.325Z,22.12
2022-08-16T01:34:08.091Z,22.15
2022-08-16T01:37:28.402Z,22.17
2022-08-16T01:40:39.940Z,22.16
2022-08-16T01:43:45.403Z,22.13
2022-08-16T01:46:57.559Z,22.09
2022-08-16T01:50:43.517Z,22.26
2022-08-16T01:53:23.589Z,22.13
2022-08-16T01:56:29.758Z,22.02
2022-08-16T01:59:33.354Z,22.19
2022-08-16T02:02:36.922Z,22.04
2022-08-16T02:05:51.759Z,21.88
2022-08-16T02:08:55.998Z,22.11
2022-08-16T02:12:49.903Z,21.88
2022-08-16T02:15:26.090Z,21.93
2022-08-16T02:18:29.797Z,21.96
2022-08-16T02:21:33.064Z,22.03
2022-08-16T02:24:40.958Z,22.13
2022-08-16T02:27:50.795Z,22.09
2022-08-16T02:30:54.968Z,22.14
2022-08-16T02:33:57.934Z,22.14
2022-08-16T02:37:00.660Z,22.05
2022-08-16T02:40:03.785Z,22.06
2022-08-16T02:43:08.371Z,22.04
2022-08-16T02:46:11.100Z,22.07
2022-08-16T02:49:14.091Z,21.96
2022-08-16T02:52:24.655Z,21.97
2022-08-16T02:55:40.474Z,21.99
2022-08-16T02:58:47.152Z,21.91
2022-08-16T03:01:51.144Z,21.97
2022-08-16T03:04:54.497Z,22.06
2022-08-16T03:07:57.035Z,22.03
2022-08-16T03:11:00.372Z,21.74
2022-08-16T03:14:07.483Z,21.89
2022-08-16T03:17:11.082Z,21.92
2022-08-16T03:20:18.296Z,21.83
2022-08-16T03:23:20.993Z,21.73
2022-08-16T03:26:25.843Z,21.86
2022-08-16T03:29:32.818Z,21.84
2022-08-16T03:32:36.682Z,21.77
2022-08-16T03:35:40.982Z,21.64
2022-08-16T03:38:44.204Z,21.57
2022-08-16T03:41:50.032Z,21.65
2022-08-16T03:45:03.463Z,21.82
2022-08-16T03:51:12.437Z,21.71
2022-08-16T03:54:15.506Z,21.81
2022-08-16T03:57:18.379Z,21.82
2022-08-16T04:00:36.166Z,21.84
2022-08-16T04:03:44.171Z,21.81
2022-08-16T04:06:46.893Z,21.72
2022-08-16T04:09:49.671Z,21.77
2022-08-16T04:12:54.823Z,21.68
2022-08-16T04:15:59.608Z,21.73
2022-08-16T04:19:04.466Z,21.65
2022-08-16T04:22:08.712Z,21.73
2022-08-16T04:25:13.222Z,21.60
2022-08-16T04:28:29.702Z,21.54
2022-08-16T04:31:40.849Z,21.68
2022-08-16T04:34:46.460Z,21.62
2022-08-16T04:37:53.843Z,21.61
2022-08-16T04:40:58.025Z,21.66
2022-08-16T04:44:00.679Z,21.67
2022-08-16T04:47:21.494Z,21.60
2022-08-16T04:50:30.391Z,21.65
2022-08-16T04:53:33.233Z,21.66
2022-08-16T04:56:36.496Z,21.70
2022-08-16T04:59:48.825Z,21.71
2022-08-16T05:02:58.871Z,21.72
2022-08-16T05:09:12.034Z,21.54
2022-08-16T05:12:21.973Z,21.50
2022-08-16T05:15:25.137Z,21.22
2022-08-16T05:18:29.108Z,21.37
2022-08-16T05:21:36.020Z,21.48
2022-08-16T05:24:41.228Z,21.56
2022-08-16T05:27:47.097Z,21.49
2022-08-16T05:30:51.192Z,21.60
2022-08-16T05:33:55.157Z,21.58
2022-08-16T05:36:58.835Z,21.70
2022-08-16T05:40:06.165Z,21.50
2022-08-16T05:43:12.037Z,21.36
2022-08-16T05:46:30.037Z,21.66
2022-08-16T05:49:39.390Z,21.80
2022-08-16T05:52:44.782Z,21.67
2022-08-16T05:55:47.747Z,21.56
2022-08-16T05:58:50.516Z,21.46
2022-08-16T06:01:54.174Z,21.54
2022-08-16T06:04:58.236Z,21.62
2022-08-16T06:08:00.856Z,21.82
2022-08-16T06:11:11.165Z,21.91
2022-08-16T06:14:16.157Z,22.13
2022-08-16T06:17:21.571Z,22.23
2022-08-16T06:20:35.561Z,22.22
2022-08-16T06:23:38.835Z,22.36
2022-08-16T06:26:57.368Z,22.48
2022-08-16T06:30:00.906Z,22.67
2022-08-16T06:33:06.031Z,22.68
2022-08-16T06:36:17.318Z,22.90
2022-08-16T06:39:23.810Z,22.97
2022-08-16T06:42:26.559Z,23.08
2022-08-16T06:45:30.589Z,23.13
2022-08-16T06:48:34.108Z,23.12
2022-08-16T06:51:46.807Z,23.35
2022-08-16T06:54:51.481Z,23.29
2022-08-16T06:57:55.668Z,23.50
2022-08-16T07:00:59.953Z,23.57
2022-08-16T07:04:02.896Z,23.66
2022-08-16T07:07:15.038Z,23.83
2022-08-16T07:10:17.976Z,23.94
2022-08-16T07:13:57.818Z,24.06
2022-08-16T07:16:44.392Z,24.07
2022-08-16T07:20:30.344Z,24.01
2022-08-16T07:23:13.117Z,24.17
2022-08-16T07:26:25.089Z,24.23
2022-08-16T07:29:31.848Z,24.38
2022-08-16T07:32:34.994Z,24.50
2022-08-16T07:35:44.305Z,24.51
2022-08-16T07:38:48.660Z,24.61
2022-08-16T07:41:53.138Z,24.41
2022-08-16T07:44:55.759Z,24.42
2022-08-16T07:48:00.093Z,24.49
2022-08-16T07:51:14.628Z,24.27
2022-08-16T07:54:20.684Z,24.10
2022-08-16T07:57:24.490Z,24.19
2022-08-16T08:00:27.284Z,24.26
2022-08-16T08:03:39.333Z,24.26
2022-08-16T08:06:42.761Z,24.22
2022-08-16T08:09:48.008Z,24.09
2022-08-16T08:12:54.979Z,23.83
2022-08-16T08:15:58.043Z,23.91
2022-08-16T08:19:02.929Z,24.00
2022-08-16T08:22:06.610Z,24.06
2022-08-16T08:25:13.093Z,24.54
2022-08-16T08:28:19.995Z,24.60
2022-08-16T08:31:22.826Z,24.68
2022-08-16T08:34:25.777Z,24.35
2022-08-16T08:37:28.464Z,25.15
2022-08-16T08:40:53.671Z,25.50
2022-08-16T08:43:57.047Z,25.58
2022-08-16T08:47:01.565Z,25.79
2022-08-16T08:50:05.911Z,25.43
2022-08-16T08:53:09.024Z,25.44
2022-08-16T08:56:23.769Z,25.29
2022-08-16T08:59:28.226Z,26.25
2022-08-16T09:02:31.111Z,26.61
2022-08-16T09:05:35.862Z,26.71
2022-08-16T09:08:40.138Z,26.88
2022-08-16T09:12:03.949Z,26.73
2022-08-16T09:15:13.658Z,26.55
2022-08-16T09:18:24.856Z,26.47
2022-08-16T09:21:31.470Z,26.46
2022-08-16T09:24:46.849Z,26.90
2022-08-16T09:28:02.493Z,27.31
2022-08-16T09:31:11.893Z,27.89
2022-08-16T09:34:19.225Z,28.12
2022-08-16T09:37:29.376Z,28.50
2022-08-16T09:40:42.439Z,28.77
2022-08-16T09:43:58.446Z,28.86
2022-08-16T09:47:10.258Z,28.51
2022-08-16T09:50:14.447Z,28.81
2022-08-16T09:53:26.749Z,28.60
2022-08-16T09:56:34.213Z,28.43
2022-08-16T09:59:41.873Z,29.44
2022-08-16T10:02:48.174Z,29.52
2022-08-16T10:05:51.830Z,29.53
2022-08-16T10:09:05.658Z,29.74
2022-08-16T10:12:28.225Z,30.06
2022-08-16T10:15:32.546Z,30.71
2022-08-16T10:18:56.445Z,29.18
2022-08-16T10:21:58.197Z,29.41
2022-08-16T10:25:00.912Z,30.41
2022-08-16T10:28:28.293Z,30.47
2022-08-16T10:31:43.771Z,30.70
2022-08-16T10:34:48.346Z,30.35
2022-08-16T10:37:54.986Z,31.04
2022-08-16T10:40:57.614Z,31.36
2022-08-16T10:44:03.094Z,31.00
2022-08-16T10:47:07.277Z,30.94
2022-08-16T10:50:19.757Z,31.08
2022-08-16T10:53:23.057Z,31.00
2022-08-16T10:56:52.609Z,32.13
2022-08-16T10:59:56.101Z,31.06
2022-08-16T11:03:04.857Z,31.70
2022-08-16T11:06:11.940Z,31.25
2022-08-16T11:09:25.337Z,31.19
2022-08-16T11:12:31.277Z,32.06
2022-08-16T11:15:34.870Z,32.08
2022-08-16T11:18:49.039Z,31.82
2022-08-16T11:22:22.993Z,32.13
2022-08-16T11:32:20.321Z,33.83
2022-08-16T11:38:58.541Z,33.75
2022-08-16T11:42:02.498Z,34.66
2022-08-16T11:45:05.787Z,34.60
2022-08-16T11:48:09.462Z,34.25
2022-08-16T11:51:14.230Z,34.46
2022-08-16T11:54:20.381Z,34.84
2022-08-16T11:57:24.400Z,34.81
2022-08-16T12:00:34.061Z,33.77
2022-08-16T12:03:50.470Z,34.44
2022-08-16T12:06:54.805Z,34.66
2022-08-16T12:09:57.566Z,33.74
2022-08-16T12:13:02.569Z,32.96
2022-08-16T12:16:08.161Z,32.41
2022-08-16T12:19:13.764Z,32.62
2022-08-16T12:22:19.885Z,33.11
2022-08-16T12:25:25.542Z,32.33
2022-08-16T12:28:37.025Z,31.90
2022-08-16T12:31:59.089Z,32.80
2022-08-16T12:35:07.385Z,32.39
2022-08-16T12:38:41.057Z,31.90
2022-08-16T12:41:37.493Z,31.61
2022-08-16T12:44:47.559Z,31.24
2022-08-16T12:48:32.745Z,30.81
2022-08-16T12:51:58.657Z,30.17
2022-08-16T12:54:58.178Z,29.99
2022-08-16T12:58:01.006Z,30.09
2022-08-16T13:01:03.728Z,29.84
2022-08-16T13:04:12.347Z,29.62
2022-08-16T13:07:27.001Z,29.58
2022-08-16T13:10:37.401Z,29.60
2022-08-16T13:13:41.538Z,29.64
2022-08-16T13:16:44.150Z,29.66
2022-08-16T13:20:07.597Z,29.54
2022-08-16T13:23:13.241Z,29.64
2022-08-16T13:26:21.063Z,29.53
2022-08-16T13:29:23.677Z,29.17
2022-08-16T13:32:40.583Z,29.19
2022-08-16T13:35:45.945Z,29.20
2022-08-16T13:38:59.560Z,28.98
2022-08-16T13:42:04.260Z,29.11
2022-08-16T13:45:08.061Z,29.24
2022-08-16T13:48:11.681Z,29.17
2022-08-16T13:51:29.252Z,29.21
2022-08-16T13:54:33.202Z,29.36
2022-08-16T13:58:35.205Z,29.47
2022-08-16T14:01:01.659Z,29.77
2022-08-16T14:04:05.372Z,30.28
2022-08-16T14:07:10.747Z,30.90
2022-08-16T14:10:15.223Z,31.22
2022-08-16T14:13:21.167Z,31.09
2022-08-16T14:16:33.578Z,31.05
2022-08-16T14:19:36.770Z,31.21
2022-08-16T14:22:52.331Z,31.21
2022-08-16T14:25:57.812Z,30.91
2022-08-16T14:29:03.672Z,30.87
2022-08-16T14:32:08.491Z,30.94
2022-08-16T14:35:14.955Z,30.36
2022-08-16T14:38:19.152Z,30.37
2022-08-16T14:41:27.520Z,29.99
2022-08-16T14:44:32.559Z,29.78
2022-08-16T14:47:37.075Z,29.74
2022-08-16T14:50:39.684Z,29.73
2022-08-16T14:53:45.190Z,29.90
2022-08-16T14:56:54.898Z,29.76
2022-08-16T15:00:05.624Z,29.68
2022-08-16T15:03:10.527Z,29.69
2022-08-16T15:06:14.375Z,29.66
2022-08-16T15:09:17.448Z,29.69
2022-08-16T15:12:26.319Z,29.44
2022-08-16T15:15:31.702Z,29.46
2022-08-16T15:18:34.406Z,29.28
2022-08-16T15:21:38.093Z,29.46
2022-08-16T15:24:42.394Z,29.26
2022-08-16T15:27:46.251Z,29.11
2022-08-16T15:31:03.403Z,29.30
2022-08-16T15:34:06.746Z,29.38
2022-08-16T15:37:16.901Z,29.18
2022-08-16T15:40:32.173Z,29.09
2022-08-16T15:43:39.768Z,29.18
2022-08-16T15:46:55.578Z,29.01
2022-08-16T15:50:01.937Z,29.09
2022-08-16T15:53:12.548Z,29.03
2022-08-16T15:56:15.731Z,28.95
2022-08-16T15:59:18.358Z,28.98
2022-08-16T16:02:29.200Z,28.77
2022-08-16T16:05:33.863Z,28.93
2022-08-16T16:08:41.551Z,28.53
2022-08-16T16:11:45.691Z,28.73
2022-08-16T16:14:48.538Z,28.58
2022-08-16T16:17:55.243Z,28.58
2022-08-16T16:21:01.272Z,28.44
2022-08-16T16:24:21.631Z,28.39
2022-08-16T16:27:26.815Z,28.12
2022-08-16T16:30:37.530Z,28.27
2022-08-16T16:33:55.701Z,27.83
2022-08-16T16:36:58.298Z,27.84
2022-08-16T16:40:01.618Z,27.93
2022-08-16T16:43:06.273Z,27.54
2022-08-16T16:46:42.773Z,27.55
2022-08-16T16:49:34.231Z,27.39
2022-08-16T16:52:45.229Z,27.29
2022-08-16T16:55:52.053Z,27.26
2022-08-16T16:59:01.038Z,27.25
2022-08-16T17:02:46.115Z,27.05
2022-08-16T17:05:29.299Z,27.09
2022-08-16T17:08:35.506Z,27.28
2022-08-16T17:11:41.126Z,27.07
2022-08-16T17:14:43.720Z,26.84
2022-08-16T17:18:00.128Z,26.93
2022-08-16T17:21:07.126Z,26.34
2022-08-16T17:24:17.374Z,26.18
2022-08-16T17:27:33.248Z,26.06
2022-08-16T17:30:45.340Z,25.82
2022-08-16T17:37:12.770Z,25.29
2022-08-16T17:39:28.317Z,25.48
2022-08-16T17:40:26.904Z,25.08
2022-08-16T17:43:44.253Z,24.91
2022-08-16T17:46:52.266Z,24.81
2022-08-16T17:49:55.469Z,24.75
2022-08-16T17:52:59.499Z,24.83
2022-08-16T17:56:02.897Z,24.76
2022-08-16T17:59:05.626Z,24.59
2022-08-16T18:02:15.355Z,24.46
2022-08-16T18:05:31.198Z,24.51
2022-08-16T18:08:35.479Z,24.43
2022-08-16T18:11:40.649Z,24.46
2022-08-16T18:14:52.305Z,24.26
2022-08-16T18:17:56.669Z,24.31
2022-08-16T18:21:16.790Z,24.28
2022-08-16T18:24:21.390Z,24.22
2022-08-16T18:27:26.093Z,24.08
2022-08-16T18:30:29.825Z,24.17
2022-08-16T18:33:43.105Z,24.10
2022-08-16T18:36:46.516Z,24.18
2022-08-16T18:39:50.558Z,24.21
2022-08-16T18:42:55.952Z,24.16
2022-08-16T18:45:58.587Z,24.02
2022-08-16T18:49:01.183Z,23.89
2022-08-16T18:52:04.498Z,23.93
2022-08-16T18:55:14.195Z,23.88
2022-08-16T18:58:17.403Z,23.82
2022-08-16T19:01:20.093Z,23.90
2022-08-16T19:04:54.822Z,23.82
2022-08-16T19:07:45.318Z,23.91
2022-08-16T19:10:50.907Z,23.93
2022-08-16T19:13:53.491Z,23.87
2022-08-16T19:16:56.851Z,23.79
2022-08-16T19:19:59.452Z,23.63
2022-08-16T19:23:04.948Z,23.75
2022-08-16T19:26:23.406Z,23.65
2022-08-16T19:29:28.797Z,23.57
2022-08-16T19:32:31.360Z,23.51
2022-08-16T19:35:34.354Z,23.60
2022-08-16T19:38:36.955Z,23.57
2022-08-16T19:41:43.909Z,23.43
2022-08-16T19:44:49.051Z,23.30
2022-08-16T19:47:54.420Z,23.29
2022-08-16T19:50:58.984Z,23.37
2022-08-16T19:54:01.581Z,23.37
2022-08-16T19:57:05.735Z,23.36
2022-08-16T20:00:14.474Z,23.23
2022-08-16T20:03:21.167Z,23.21
2022-08-16T20:06:37.594Z,23.17
2022-08-16T20:09:41.398Z,23.20
2022-08-16T20:13:01.890Z,23.04
2022-08-16T20:16:05.307Z,22.84
2022-08-16T20:19:08.647Z,22.74
2022-08-16T20:22:49.889Z,22.92
2022-08-16T20:25:49.741Z,22.98
2022-08-16T20:28:55.319Z,22.83
2022-08-16T20:31:58.293Z,22.91
2022-08-16T20:35:01.542Z,22.90
2022-08-16T20:38:04.322Z,22.83
2022-08-16T20:41:07.181Z,22.79
2022-08-16T20:44:12.332Z,22.72
2022-08-16T20:47:15.658Z,22.52
2022-08-16T20:50:18.522Z,22.56
2022-08-16T20:53:21.219Z,22.69
2022-08-16T20:56:24.212Z,22.60
2022-08-16T20:59:28.232Z,22.74
2022-08-16T21:02:30.841Z,22.63
2022-08-16T21:05:34.081Z,22.50
2022-08-16T21:08:53.325Z,22.31
2022-08-16T21:11:58.864Z,22.45
2022-08-16T21:15:07.147Z,22.32
2022-08-16T21:18:09.955Z,22.50
2022-08-16T21:21:12.602Z,22.54
2022-08-16T21:24:15.816Z,22.46
2022-08-16T21:27:18.973Z,22.50
2022-08-16T21:30:32.393Z,22.54
2022-08-16T21:33:35.242Z,22.54
2022-08-16T21:36:37.860Z,22.43
2022-08-16T21:39:40.621Z,22.24
2022-08-16T21:42:44.156Z,22.28
2022-08-16T21:45:48.746Z,22.25
2022-08-16T21:48:57.570Z,22.09
2022-08-16T21:52:00.166Z,22.04
2022-08-16T21:55:02.800Z,22.09
2022-08-16T21:58:06.226Z,22.00
2022-08-16T22:01:10.187Z,21.97
2022-08-16T22:04:37.881Z,22.04
2022-08-16T22:07:37.216Z,22.18
2022-08-16T22:11:07.733Z,22.05
2022-08-16T22:14:04.217Z,21.92
2022-08-16T22:17:08.205Z,21.88
2022-08-16T22:20:12.020Z,22.00
2022-08-16T22:23:16.711Z,22.09
2022-08-16T22:26:19.610Z,21.93
2022-08-16T22:29:33.170Z,22.05
2022-08-16T22:32:40.568Z,21.85
2022-08-16T22:35:46.105Z,21.94
2022-08-16T22:38:55.527Z,21.93
2022-08-16T22:41:59.852Z,21.86
2022-08-16T22:45:06.525Z,21.83
2022-08-16T22:48:10.894Z,21.64
2022-08-16T22:51:13.532Z,21.66
2022-08-16T22:54:37.526Z,21.65
2022-08-16T22:57:38.717Z,21.81
2022-08-16T23:00:43.741Z,21.65
2022-08-16T23:03:47.700Z,21.71
2022-08-16T23:06:50.305Z,21.76
2022-08-16T23:09:53.603Z,21.66
2022-08-16T23:12:58.189Z,21.74
2022-08-16T23:16:10.813Z,21.46
2022-08-16T23:19:16.770Z,21.60
2022-08-16T23:22:19.387Z,21.35
2022-08-16T23:25:30.145Z,21.51
2022-08-16T23:28:32.995Z,21.50
2022-08-16T23:31:35.608Z,21.49
2022-08-16T23:34:40.098Z,21.47
2022-08-16T23:37:43.196Z,21.46
2022-08-16T23:40:46.002Z,21.35
2022-08-16T23:43:48.573Z,21.14
2022-08-16T23:46:51.141Z,20.99
2022-08-16T23:50:00.316Z,21.20
2022-08-16T23:53:10.457Z,21.23
2022-08-16T23:56:15.215Z,21.14
2022-08-16T23:59:17.801Z,21.12
